Time;durP1;ratioP1;P1;durP2;ratioP2;P2;SDS_P1;SDS_P2;PMS_P1;PMS_P2;Temp;Humidity;BMP_temperature;BMP_pressure;BME280_temperature;BME280_humidity;BME280_pressure;Samples;Min_cycle;Max_cycle;Signal;HPM_P1;HPM_P2
2022/06/28 00:01:59;;;;;;;9.88;4.00;;;13.50;99.90;;;;;;5069238;28;20047;-77
2022/06/28 00:04:25;;;;;;;9.27;3.80;;;13.40;99.90;;;;;;5063691;28;20059;-77
2022/06/28 00:06:51;;;;;;;8.07;3.60;;;13.40;99.90;;;;;;5066530;28;20504;-78
2022/06/28 00:09:17;;;;;;;11.65;4.40;;;13.40;99.90;;;;;;5053553;28;20095;-76
2022/06/28 00:11:43;;;;;;;8.40;3.60;;;13.40;99.90;;;;;;5067615;28;20074;-76
2022/06/28 00:16:56;;;;;;;8.15;3.92;;;13.40;99.90;;;;;;5066825;28;20071;-74
2022/06/28 00:19:22;;;;;;;8.48;3.40;;;13.40;99.90;;;;;;5067493;28;20048;-77
2022/06/28 00:21:49;;;;;;;10.90;4.13;;;13.40;99.90;;;;;;5064527;28;20059;-76
2022/06/28 00:24:15;;;;;;;9.85;3.58;;;13.40;99.90;;;;;;5063444;28;20068;-77
2022/06/28 00:26:42;;;;;;;8.98;4.15;;;13.30;99.90;;;;;;5064231;28;20124;-76
2022/06/28 00:29:07;;;;;;;12.75;4.28;;;13.30;99.90;;;;;;5057235;28;20324;-76
2022/06/28 00:31:33;;;;;;;11.90;3.40;;;13.30;99.90;;;;;;5068239;28;20325;-76
2022/06/28 00:33:59;;;;;;;13.25;4.20;;;13.30;99.90;;;;;;5065930;28;20056;-76
2022/06/28 00:36:25;;;;;;;8.48;3.80;;;13.30;99.90;;;;;;5064086;28;20037;-77
2022/06/28 00:38:51;;;;;;;9.63;4.60;;;13.20;99.90;;;;;;5042366;28;20051;-77
2022/06/28 00:41:16;;;;;;;7.35;3.58;;;13.30;99.90;;;;;;5060422;28;20040;-77
2022/06/28 00:43:43;;;;;;;7.90;3.88;;;13.20;99.90;;;;;;5043054;28;20315;-76
2022/06/28 00:46:09;;;;;;;8.48;3.80;;;13.30;99.90;;;;;;5067223;28;20434;-75
2022/06/28 00:48:34;;;;;;;11.25;4.00;;;13.20;99.90;;;;;;5064516;28;20044;-76
2022/06/28 00:51:01;;;;;;;12.32;4.70;;;13.20;99.90;;;;;;5061993;28;20045;-75
2022/06/28 00:53:27;;;;;;;14.77;4.32;;;13.20;99.90;;;;;;5066431;28;20112;-76
2022/06/28 00:55:53;;;;;;;9.88;4.00;;;13.20;99.90;;;;;;5057789;28;20146;-76
2022/06/28 00:58:19;;;;;;;16.13;4.72;;;13.20;99.90;;;;;;5068596;28;20045;-75
2022/06/28 01:00:47;;;;;;;13.23;4.55;;;13.20;99.90;;;;;;5062242;28;20537;-76
2022/06/28 01:03:18;;;;;;;12.02;4.15;;;13.20;99.90;;;;;;5066849;28;20067;-76
2022/06/28 01:05:44;;;;;;;14.07;4.30;;;13.20;99.90;;;;;;5063969;28;20036;-76
2022/06/28 01:08:11;;;;;;;9.48;3.85;;;13.20;99.90;;;;;;5051678;28;20630;-75
2022/06/28 01:10:37;;;;;;;9.82;3.63;;;13.20;99.90;;;;;;5065989;28;20347;-75
2022/06/28 01:13:03;;;;;;;12.20;4.43;;;13.20;99.90;;;;;;5053260;28;20040;-75
2022/06/28 01:15:30;;;;;;;13.77;3.83;;;13.20;99.90;;;;;;5063533;28;20106;-75
2022/06/28 01:17:58;;;;;;;7.95;3.33;;;13.20;99.90;;;;;;5062117;28;20037;-75
2022/06/28 01:20:24;;;;;;;8.50;3.65;;;13.20;99.90;;;;;;5067130;28;20097;-75
2022/06/28 01:22:51;;;;;;;12.80;4.28;;;13.20;99.90;;;;;;5063676;28;20075;-76
2022/06/28 01:25:16;;;;;;;17.25;4.18;;;13.20;99.90;;;;;;5059660;28;20514;-75
2022/06/28 01:27:43;;;;;;;12.27;3.95;;;13.20;99.90;;;;;;5067020;28;20144;-75
2022/06/28 01:30:10;;;;;;;12.68;4.20;;;13.20;99.90;;;;;;5063558;28;20036;-75
2022/06/28 01:32:35;;;;;;;16.42;4.75;;;13.30;99.90;;;;;;5064202;28;20059;-75
2022/06/28 01:35:02;;;;;;;16.33;3.58;;;13.20;99.90;;;;;;5055839;28;20048;-76
2022/06/28 01:37:29;;;;;;;16.60;5.07;;;13.20;99.90;;;;;;5059986;28;20036;-76
2022/06/28 01:39:55;;;;;;;12.93;4.03;;;13.20;99.90;;;;;;5060603;28;20032;-76
2022/06/28 01:42:20;;;;;;;11.40;4.40;;;13.20;99.90;;;;;;5068141;28;20051;-75
2022/06/28 01:44:47;;;;;;;9.45;3.83;;;13.20;99.90;;;;;;5058717;28;20044;-75
2022/06/28 01:47:15;;;;;;;17.63;5.45;;;13.20;99.90;;;;;;5056650;28;20045;-75
2022/06/28 01:49:41;;;;;;;19.42;5.32;;;13.20;99.90;;;;;;5056690;28;20098;-75
2022/06/28 01:52:06;;;;;;;12.38;3.97;;;13.20;99.90;;;;;;5057905;28;20049;-76
2022/06/28 01:54:32;;;;;;;15.32;4.07;;;13.20;99.90;;;;;;5060879;28;20036;-76
2022/06/28 01:56:58;;;;;;;13.23;3.58;;;13.10;99.90;;;;;;5056527;28;20428;-75
2022/06/28 01:59:24;;;;;;;10.50;4.40;;;13.20;99.90;;;;;;5057538;28;20111;-76
2022/06/28 02:01:50;;;;;;;9.63;3.85;;;13.20;99.90;;;;;;5063123;28;20036;-76
2022/06/28 02:04:28;;;;;;;15.35;4.22;;;13.10;99.90;;;;;;5060351;28;20083;-75
2022/06/28 02:06:54;;;;;;;15.05;4.22;;;13.10;99.90;;;;;;5055735;28;20047;-75
2022/06/28 02:09:20;;;;;;;12.50;4.75;;;13.20;99.90;;;;;;5068795;28;20071;-76
2022/06/28 02:11:46;;;;;;;12.80;4.10;;;13.20;99.90;;;;;;5060966;28;20045;-76
2022/06/28 02:14:12;;;;;;;12.07;4.82;;;13.20;99.90;;;;;;5055068;28;20123;-76
2022/06/28 02:16:38;;;;;;;13.93;5.00;;;13.20;99.90;;;;;;5063075;28;20053;-75
2022/06/28 02:19:04;;;;;;;13.30;4.32;;;13.20;99.90;;;;;;5064081;28;20048;-75
2022/06/28 02:21:37;;;;;;;20.08;4.15;;;13.20;99.90;;;;;;5051841;28;20039;-76
2022/06/28 02:24:03;;;;;;;;;;;13.30;99.90;;;;;;5055091;28;20040;-75
2022/06/28 02:26:31;;;;;;;12.48;3.97;;;13.30;99.90;;;;;;5060690;28;20007;-75
2022/06/28 02:29:00;;;;;;;15.95;3.42;;;13.30;99.90;;;;;;5054170;28;20037;-75
2022/06/28 02:31:26;;;;;;;10.00;3.33;;;13.30;99.90;;;;;;5059739;28;20083;-75
2022/06/28 02:33:52;;;;;;;11.20;3.30;;;13.30;99.90;;;;;;5057808;28;20082;-76
2022/06/28 02:41:47;;;;;;;7.28;2.75;;;13.30;99.90;;;;;;5063292;28;20040;-75
2022/06/28 02:44:12;;;;;;;9.13;3.45;;;13.30;99.90;;;;;;5056018;28;20444;-76
2022/06/28 02:46:38;;;;;;;9.00;2.72;;;13.30;99.90;;;;;;5058057;28;20064;-75
2022/06/28 02:49:04;;;;;;;8.30;2.78;;;13.20;99.90;;;;;;5054001;28;20518;-74
2022/06/28 02:51:30;;;;;;;11.48;3.05;;;13.20;99.90;;;;;;5057849;28;20036;-75
2022/06/28 02:53:55;;;;;;;10.35;2.83;;;13.20;99.90;;;;;;5051367;28;20048;-74
2022/06/28 02:56:22;;;;;;;9.07;2.65;;;13.20;99.90;;;;;;5057534;28;20526;-75
2022/06/28 02:58:47;;;;;;;8.50;2.70;;;13.20;99.90;;;;;;5056692;28;20159;-75
2022/06/28 03:01:13;;;;;;;10.20;2.85;;;13.20;99.90;;;;;;5058910;28;20125;-75
2022/06/28 03:03:39;;;;;;;7.47;2.67;;;13.20;99.90;;;;;;5063901;28;20170;-75
2022/06/28 03:06:05;;;;;;;7.55;2.45;;;13.10;99.90;;;;;;5056215;28;20033;-75
2022/06/28 03:08:32;;;;;;;9.73;3.25;;;13.10;99.90;;;;;;5064461;28;20079;-75
2022/06/28 03:10:57;;;;;;;6.65;2.90;;;13.00;99.90;;;;;;5061437;28;20048;-75
2022/06/28 03:13:23;;;;;;;8.60;2.75;;;13.10;99.90;;;;;;5056313;28;20041;-75
2022/06/28 03:15:49;;;;;;;8.23;2.75;;;13.00;99.90;;;;;;5057012;28;20050;-75
2022/06/28 03:18:15;;;;;;;7.97;2.28;;;13.00;99.90;;;;;;5054738;28;20374;-74
2022/06/28 03:20:41;;;;;;;11.27;2.97;;;13.00;99.90;;;;;;5053631;28;20113;-75
2022/06/28 03:23:07;;;;;;;8.98;2.83;;;12.90;99.90;;;;;;5052802;28;20151;-74
2022/06/28 03:25:33;;;;;;;5.63;2.22;;;12.90;99.90;;;;;;5055580;28;20406;-76
2022/06/28 03:27:58;;;;;;;8.25;2.63;;;12.90;99.90;;;;;;5056802;28;20033;-75
2022/06/28 03:30:24;;;;;;;5.65;2.20;;;12.80;99.90;;;;;;5058889;28;20444;-75
2022/06/28 03:32:50;;;;;;;9.27;2.38;;;12.80;99.90;;;;;;5064442;28;20199;-75
2022/06/28 03:35:17;;;;;;;6.72;2.30;;;12.90;99.90;;;;;;5069755;28;20599;-74
2022/06/28 03:37:43;;;;;;;7.57;2.55;;;12.90;99.90;;;;;;5062227;28;20044;-75
2022/06/28 03:40:09;;;;;;;6.72;2.38;;;12.80;99.90;;;;;;5065092;28;20032;-75
2022/06/28 03:42:36;;;;;;;5.72;1.95;;;12.90;99.90;;;;;;5059297;28;20124;-76
2022/06/28 03:45:02;;;;;;;6.68;2.78;;;12.90;99.90;;;;;;5068329;28;20045;-74
2022/06/28 03:47:28;;;;;;;7.25;2.22;;;12.90;99.90;;;;;;5064368;28;20033;-75
2022/06/28 03:49:53;;;;;;;6.88;2.13;;;12.90;99.90;;;;;;5068102;28;20487;-75
2022/06/28 03:52:19;;;;;;;5.40;1.83;;;12.90;99.90;;;;;;5069104;28;20051;-75
2022/06/28 03:54:45;;;;;;;8.82;2.20;;;12.90;99.90;;;;;;5054358;28;20427;-75
2022/06/28 03:57:11;;;;;;;11.45;2.30;;;13.00;99.90;;;;;;5060079;28;20051;-75
2022/06/28 03:59:36;;;;;;;6.50;2.28;;;13.00;99.90;;;;;;5069170;28;20101;-75
2022/06/28 04:02:04;;;;;;;9.18;2.28;;;13.00;99.90;;;;;;5060847;28;20400;-74
2022/06/28 04:04:30;;;;;;;4.18;2.25;;;13.10;99.90;;;;;;5061518;28;20037;-75
2022/06/28 04:06:56;;;;;;;4.22;1.70;;;13.10;99.90;;;;;;5058447;28;20044;-75
2022/06/28 04:09:21;;;;;;;11.57;2.30;;;13.10;99.90;;;;;;5067396;28;20047;-75
2022/06/28 04:11:47;;;;;;;6.28;2.22;;;13.30;99.90;;;;;;5055961;28;20493;-77
2022/06/28 04:14:13;;;;;;;4.97;1.95;;;13.50;99.90;;;;;;5059051;28;20138;-77
2022/06/28 04:16:41;;;;;;;7.40;2.25;;;13.70;99.90;;;;;;5063773;28;20044;-76
2022/06/28 04:19:08;;;;;;;7.93;2.20;;;14.00;99.90;;;;;;5065203;28;20120;-75
2022/06/28 04:21:33;;;;;;;8.43;1.85;;;14.60;99.90;;;;;;5054105;28;20048;-75
2022/06/28 04:23:59;;;;;;;6.70;1.90;;;15.20;99.90;;;;;;5058309;28;20101;-75
2022/06/28 04:26:25;;;;;;;7.45;2.28;;;15.80;99.90;;;;;;5066292;28;20058;-76
2022/06/28 04:28:50;;;;;;;7.75;2.17;;;16.10;99.90;;;;;;5056834;28;20036;-76
2022/06/28 04:31:17;;;;;;;5.53;1.80;;;16.50;99.90;;;;;;5066949;28;20395;-75
2022/06/28 04:33:43;;;;;;;5.72;1.80;;;16.60;99.90;;;;;;5062456;28;20048;-75
2022/06/28 04:36:08;;;;;;;8.38;2.15;;;16.50;99.90;;;;;;5066131;28;20043;-76
2022/06/28 04:38:34;;;;;;;7.30;2.03;;;16.30;99.90;;;;;;5059014;28;20625;-76
2022/06/28 04:41:00;;;;;;;8.07;2.22;;;16.10;99.90;;;;;;5056635;28;20037;-75
2022/06/28 04:43:26;;;;;;;8.73;2.22;;;15.80;99.90;;;;;;5061483;28;20060;-74
2022/06/28 04:45:51;;;;;;;10.63;2.20;;;15.60;99.90;;;;;;5060472;28;20078;-75
2022/06/28 04:48:17;;;;;;;5.60;1.73;;;15.30;99.90;;;;;;5066261;28;20045;-75
2022/06/28 04:50:43;;;;;;;10.57;2.20;;;15.20;99.90;;;;;;5057677;28;20545;-75
2022/06/28 04:53:08;;;;;;;7.75;2.33;;;15.00;99.90;;;;;;5062460;28;20047;-75
2022/06/28 04:55:34;;;;;;;10.65;2.22;;;15.00;99.90;;;;;;5061918;28;20128;-74
2022/06/28 04:58:00;;;;;;;10.60;2.20;;;15.00;99.90;;;;;;5064181;28;20328;-75
2022/06/28 05:00:27;;;;;;;6.53;1.90;;;15.00;99.90;;;;;;5056010;28;20040;-76
2022/06/28 05:02:53;;;;;;;5.90;1.73;;;15.10;99.90;;;;;;5059786;28;20072;-75
2022/06/28 05:05:18;;;;;;;6.95;2.05;;;15.10;99.90;;;;;;5061227;28;20068;-74
2022/06/28 05:07:44;;;;;;;7.40;2.00;;;15.20;99.90;;;;;;5061164;28;20040;-74
2022/06/28 05:10:10;;;;;;;5.68;2.08;;;15.30;99.90;;;;;;5050876;28;20071;-74
2022/06/28 05:12:35;;;;;;;9.73;2.33;;;15.40;99.90;;;;;;5061869;28;20389;-73
2022/06/28 05:15:01;;;;;;;10.75;2.85;;;15.50;99.90;;;;;;5064351;28;20295;-74
2022/06/28 05:17:27;;;;;;;10.75;2.60;;;15.60;99.90;;;;;;5062685;28;20627;-73
2022/06/28 05:19:54;;;;;;;7.10;2.38;;;15.80;99.90;;;;;;5059572;28;20061;-74
2022/06/28 05:22:19;;;;;;;6.75;2.80;;;15.90;99.90;;;;;;5058513;28;20500;-78
2022/06/28 05:24:45;;;;;;;10.60;2.60;;;16.00;99.90;;;;;;5050648;28;20036;-77
2022/06/28 05:27:12;;;;;;;12.98;2.53;;;16.10;99.90;;;;;;5052332;28;20039;-79
2022/06/28 05:29:38;;;;;;;9.88;2.53;;;16.20;99.90;;;;;;5057128;28;20046;-79
2022/06/28 05:32:04;;;;;;;12.90;2.85;;;16.30;99.90;;;;;;5054025;28;20553;-77
2022/06/28 05:34:30;;;;;;;9.00;2.58;;;16.40;99.90;;;;;;5049991;28;20053;-78
2022/06/28 05:36:55;;;;;;;9.40;2.67;;;16.60;99.90;;;;;;5048884;28;20067;-75
2022/06/28 05:39:21;;;;;;;15.25;2.53;;;16.70;99.90;;;;;;5062316;28;20048;-74
2022/06/28 05:41:47;;;;;;;11.15;2.75;;;16.90;99.90;;;;;;5061308;28;21953;-74
2022/06/28 05:44:14;;;;;;;6.70;2.38;;;17.00;99.90;;;;;;5063095;28;20079;-74
2022/06/28 05:46:40;;;;;;;8.57;2.42;;;17.10;99.90;;;;;;5060477;28;20036;-73
2022/06/28 05:49:07;;;;;;;11.73;2.95;;;17.20;99.90;;;;;;5052615;28;20051;-70
2022/06/28 05:51:32;;;;;;;12.20;3.17;;;17.20;99.90;;;;;;5062153;28;20070;-73
2022/06/28 05:53:58;;;;;;;12.35;3.17;;;17.40;99.90;;;;;;5060777;28;20048;-71
2022/06/28 05:56:24;;;;;;;12.10;2.80;;;17.50;99.90;;;;;;5058762;28;20385;-72
2022/06/28 05:58:50;;;;;;;9.27;2.38;;;17.50;99.90;;;;;;5066712;28;20040;-74
2022/06/28 06:01:15;;;;;;;10.88;3.65;;;17.70;99.90;;;;;;5061592;28;20402;-76
2022/06/28 06:03:41;;;;;;;12.98;2.58;;;17.80;99.90;;;;;;5060780;28;20742;-70
2022/06/28 06:06:07;;;;;;;13.30;3.10;;;17.90;99.90;;;;;;5058480;28;20110;-70
2022/06/28 06:08:35;;;;;;;9.82;2.33;;;18.10;99.90;;;;;;5063374;28;20045;-70
2022/06/28 06:11:02;;;;;;;12.35;2.20;;;18.10;99.90;;;;;;5065004;28;20032;-70
2022/06/28 06:13:28;;;;;;;10.27;2.60;;;18.10;99.90;;;;;;5060197;28;20076;-71
2022/06/28 06:15:54;;;;;;;11.40;2.20;;;18.20;99.90;;;;;;5064531;28;20064;-72
2022/06/28 06:18:20;;;;;;;8.85;2.45;;;18.20;99.90;;;;;;5060815;28;20036;-72
2022/06/28 06:20:46;;;;;;;9.68;1.90;;;18.30;99.90;;;;;;5057975;28;20036;-74
2022/06/28 06:23:12;;;;;;;10.15;1.95;;;18.50;99.90;;;;;;5055049;28;20525;-72
2022/06/28 06:25:37;;;;;;;15.13;4.00;;;18.60;99.90;;;;;;5052870;28;20048;-71
2022/06/28 06:28:03;;;;;;;12.55;2.20;;;18.70;99.90;;;;;;5063833;28;20140;-72
2022/06/28 06:30:29;;;;;;;10.30;2.20;;;18.70;99.90;;;;;;5066065;28;20048;-70
2022/06/28 06:32:55;;;;;;;9.63;2.30;;;18.60;99.90;;;;;;5066787;28;20048;-70
2022/06/28 06:35:21;;;;;;;7.53;2.30;;;18.60;99.90;;;;;;5058611;28;20487;-69
2022/06/28 06:37:46;;;;;;;9.27;2.13;;;18.80;99.90;;;;;;5065432;28;20045;-70
2022/06/28 06:40:12;;;;;;;8.80;2.60;;;18.90;99.90;;;;;;5064017;28;20058;-70
2022/06/28 06:42:38;;;;;;;13.93;2.88;;;19.00;99.90;;;;;;5057968;28;20048;-70
2022/06/28 06:45:04;;;;;;;11.10;2.67;;;19.00;99.90;;;;;;5066122;28;20044;-70
2022/06/28 06:47:30;;;;;;;10.40;2.00;;;19.10;99.90;;;;;;5069227;28;20407;-69
2022/06/28 06:49:55;;;;;;;10.05;1.98;;;19.20;99.90;;;;;;5065957;28;20036;-69
2022/06/28 06:52:21;;;;;;;9.90;2.40;;;19.40;99.90;;;;;;5054463;28;20064;-70
2022/06/28 06:54:47;;;;;;;9.63;2.63;;;19.50;99.90;;;;;;5055874;28;20439;-70
2022/06/28 06:57:15;;;;;;;11.65;2.53;;;19.60;99.90;;;;;;5046304;28;20049;-70
2022/06/28 06:59:41;;;;;;;10.88;2.28;;;19.80;99.90;;;;;;5063673;28;20041;-70
2022/06/28 07:02:07;;;;;;;10.75;2.45;;;19.90;99.90;;;;;;5064588;28;20094;-70
2022/06/28 07:04:32;;;;;;;10.63;2.33;;;19.90;99.90;;;;;;5057997;28;20037;-69
2022/06/28 07:06:58;;;;;;;9.18;2.72;;;19.90;99.90;;;;;;5060517;28;20455;-70
2022/06/28 07:09:23;;;;;;;7.93;2.10;;;20.00;99.90;;;;;;5055573;28;20043;-69
2022/06/28 07:11:49;;;;;;;7.65;2.40;;;20.10;99.90;;;;;;5064055;28;20119;-69
2022/06/28 07:14:15;;;;;;;10.43;2.63;;;20.30;99.90;;;;;;5062557;28;20040;-71
2022/06/28 07:16:40;;;;;;;9.05;2.28;;;20.60;99.90;;;;;;5060140;28;20056;-69
2022/06/28 07:19:06;;;;;;;14.50;2.50;;;20.70;99.90;;;;;;5059041;28;20534;-70
2022/06/28 07:21:32;;;;;;;11.35;2.65;;;20.90;99.90;;;;;;5056700;28;20050;-69
2022/06/28 07:23:58;;;;;;;12.95;2.58;;;21.00;99.90;;;;;;5053879;28;20051;-70
2022/06/28 07:26:25;;;;;;;9.48;2.15;;;21.10;99.90;;;;;;5056321;28;20044;-69
2022/06/28 07:28:51;;;;;;;6.90;1.63;;;21.20;99.90;;;;;;5046466;28;20049;-69
2022/06/28 07:31:19;;;;;;;13.88;2.83;;;21.30;99.90;;;;;;5055422;28;20028;-69
2022/06/28 07:33:44;;;;;;;9.13;2.55;;;21.40;99.90;;;;;;5059448;28;20036;-70
2022/06/28 07:36:10;;;;;;;8.93;1.80;;;21.40;99.90;;;;;;5046840;28;20143;-70
2022/06/28 07:38:36;;;;;;;10.07;2.25;;;21.40;99.90;;;;;;5059216;28;20041;-70
2022/06/28 07:41:01;;;;;;;9.35;1.70;;;21.50;99.90;;;;;;5061885;28;20043;-71
2022/06/28 07:43:27;;;;;;;9.98;1.90;;;21.50;99.90;;;;;;5048454;28;20860;-70
2022/06/28 07:45:53;;;;;;;8.73;2.15;;;21.50;99.90;;;;;;5053614;28;20465;-70
2022/06/28 07:48:19;;;;;;;10.18;1.92;;;21.50;99.90;;;;;;5057503;28;20044;-70
2022/06/28 07:53:33;;;;;;;8.55;1.80;;;21.70;99.90;;;;;;5062738;28;20040;-71
2022/06/28 07:56:00;;;;;;;9.05;2.40;;;21.90;99.90;;;;;;5061101;28;20041;-70
2022/06/28 07:58:26;;;;;;;7.35;2.08;;;21.90;99.90;;;;;;5054594;28;20037;-70
2022/06/28 08:00:51;;;;;;;5.63;1.70;;;21.90;99.90;;;;;;5062360;28;20041;-70
2022/06/28 08:03:17;;;;;;;8.52;1.80;;;21.80;99.90;;;;;;5056891;28;20109;-70
2022/06/28 08:05:43;;;;;;;8.85;2.05;;;21.50;99.90;;;;;;5069231;28;20079;-70
2022/06/28 08:08:09;;;;;;;5.72;1.80;;;21.30;99.90;;;;;;5066310;28;20041;-70
2022/06/28 08:10:35;;;;;;;6.63;1.63;;;21.30;99.90;;;;;;5057417;28;20047;-71
2022/06/28 08:13:00;;;;;;;6.18;1.63;;;21.10;99.90;;;;;;5065573;28;20041;-70
2022/06/28 08:15:26;;;;;;;5.68;1.50;;;21.00;99.90;;;;;;5062325;28;20044;-70
2022/06/28 08:17:55;;;;;;;4.22;1.15;;;21.20;99.90;;;;;;5072986;28;20071;-69
2022/06/28 08:20:21;;;;;;;6.63;1.48;;;21.30;99.90;;;;;;5061555;28;21073;-70
2022/06/28 08:22:47;;;;;;;9.30;1.95;;;21.50;99.90;;;;;;5076659;28;20040;-69
2022/06/28 08:25:13;;;;;;;4.90;1.80;;;21.60;99.90;;;;;;5065641;28;20041;-70
2022/06/28 08:27:38;;;;;;;9.52;1.85;;;21.50;99.90;;;;;;5067945;28;20496;-70
2022/06/28 08:30:07;;;;;;;7.47;1.70;;;21.50;99.90;;;;;;5067434;28;20270;-70
2022/06/28 08:32:33;;;;;;;6.10;1.65;;;21.60;99.90;;;;;;5061447;28;20047;-70
2022/06/28 08:34:58;;;;;;;4.90;1.52;;;21.70;99.90;;;;;;5054500;28;20041;-70
2022/06/28 08:37:24;;;;;;;7.50;1.70;;;21.80;99.90;;;;;;5061681;28;20036;-69
2022/06/28 08:39:50;;;;;;;5.50;1.77;;;22.00;99.90;;;;;;5061025;28;20052;-72
2022/06/28 08:42:24;;;;;;;7.85;2.08;;;22.20;99.90;;;;;;5057726;28;20369;-71
2022/06/28 08:44:50;;;;;;;10.18;1.80;;;22.40;99.90;;;;;;5061745;28;20044;-71
2022/06/28 08:47:20;;;;;;;5.25;1.45;;;22.40;99.90;;;;;;5065903;28;20048;-71
2022/06/28 08:50:00;;;;;;;7.25;1.70;;;22.60;99.90;;;;;;5066821;28;20049;-71
2022/06/28 08:52:26;;;;;;;5.97;1.65;;;22.80;99.90;;;;;;5059546;28;20052;-71
2022/06/28 08:54:52;;;;;;;5.70;1.60;;;22.90;99.90;;;;;;5067896;28;20041;-72
2022/06/28 08:57:20;;;;;;;5.95;1.63;;;23.10;99.90;;;;;;5067015;28;20036;-72
2022/06/28 08:59:49;;;;;;;5.45;1.80;;;23.00;99.90;;;;;;5059633;28;20106;-69
2022/06/28 09:02:16;;;;;;;7.78;2.10;;;23.10;99.90;;;;;;5061965;28;20041;-70
2022/06/28 09:04:48;;;;;;;6.45;1.50;;;23.10;99.90;;;;;;5065214;28;20059;-70
2022/06/28 09:07:14;;;;;;;9.57;1.95;;;23.10;99.90;;;;;;5058713;28;20131;-70
2022/06/28 09:09:39;;;;;;;4.75;1.50;;;23.10;99.90;;;;;;5049272;28;20052;-70
2022/06/28 09:12:06;;;;;;;3.85;1.38;;;23.00;99.90;;;;;;5049584;28;20581;-70
2022/06/28 09:14:33;;;;;;;7.30;1.67;;;23.00;99.90;;;;;;5059181;28;20387;-72
2022/06/28 09:17:23;;;;;;;3.97;1.73;;;23.00;99.90;;;;;;5061957;28;20174;-71
2022/06/28 09:19:54;;;;;;;7.38;1.80;;;23.00;99.70;;;;;;5068815;28;20075;-71
2022/06/28 09:22:33;;;;;;;8.10;1.65;;;23.00;99.50;;;;;;5060265;28;20044;-71
2022/06/28 09:25:00;;;;;;;7.20;1.92;;;23.00;99.00;;;;;;5067763;28;20048;-71
2022/06/28 09:27:37;;;;;;;6.28;1.80;;;23.20;99.90;;;;;;5057811;28;20078;-71
2022/06/28 09:30:06;;;;;;;8.38;1.75;;;23.30;99.90;;;;;;5058256;28;20056;-72
2022/06/28 09:32:34;;;;;;;7.00;1.67;;;23.50;99.90;;;;;;5063918;28;20036;-72
2022/06/28 09:35:03;;;;;;;8.27;1.70;;;23.70;99.90;;;;;;5056215;28;20702;-71
2022/06/28 09:40:09;;;;;;;6.63;1.80;;;23.80;99.70;;;;;;5063335;28;20067;-70
2022/06/28 09:42:35;;;;;;;8.07;1.92;;;23.70;99.90;;;;;;5065837;28;20044;-71
2022/06/28 09:45:01;;;;;;;9.13;1.70;;;23.70;99.70;;;;;;5063390;28;20488;-71
2022/06/28 09:47:26;;;;;;;7.22;1.92;;;23.60;99.60;;;;;;5063551;28;20079;-72
2022/06/28 09:49:52;;;;;;;6.57;1.83;;;23.60;99.30;;;;;;5054641;28;20171;-71
2022/06/28 09:52:22;;;;;;;8.45;2.15;;;23.70;99.90;;;;;;5048781;28;20498;-72
2022/06/28 09:54:53;;;;;;;7.13;2.10;;;23.70;98.70;;;;;;5062134;28;20048;-72
2022/06/28 09:57:20;;;;;;;6.50;2.03;;;23.80;98.90;;;;;;5068919;28;20113;-71
2022/06/28 09:59:46;;;;;;;8.50;1.83;;;23.90;99.30;;;;;;5056725;28;20469;-71
2022/06/28 10:02:16;;;;;;;7.72;1.98;;;23.90;99.30;;;;;;5057832;28;20178;-71
2022/06/28 10:04:42;;;;;;;9.07;2.13;;;23.80;99.40;;;;;;5065862;28;20068;-71
2022/06/28 10:07:11;;;;;;;6.05;1.90;;;23.80;99.30;;;;;;5064529;28;20380;-72
2022/06/28 10:09:37;;;;;;;6.15;1.95;;;23.90;99.30;;;;;;5062788;28;20525;-70
2022/06/28 10:15:01;;;;;;;9.07;1.90;;;24.20;99.30;;;;;;5059262;28;20094;-71
2022/06/28 10:17:51;;;;;;;7.05;1.90;;;24.20;98.80;;;;;;5060064;28;20033;-71
2022/06/28 10:20:22;;;;;;;6.38;1.70;;;24.50;99.50;;;;;;5059650;28;20063;-71
2022/06/28 10:22:48;;;;;;;7.47;1.65;;;24.50;99.10;;;;;;5060414;28;20051;-71
2022/06/28 10:25:16;;;;;;;6.55;1.80;;;24.60;98.80;;;;;;5060131;28;20037;-72
2022/06/28 10:27:50;;;;;;;9.52;2.40;;;24.70;98.30;;;;;;5060678;28;20224;-72
2022/06/28 10:30:18;;;;;;;8.07;2.00;;;24.70;97.30;;;;;;5054215;28;20168;-73
2022/06/28 10:33:08;;;;;;;6.53;1.70;;;24.40;98.20;;;;;;5049490;28;20040;-72
2022/06/28 10:35:37;;;;;;;7.63;1.80;;;24.30;97.50;;;;;;5061220;28;20059;-72
2022/06/28 10:38:08;;;;;;;8.15;1.92;;;24.40;98.40;;;;;;5063654;28;20199;-72
2022/06/28 10:40:47;;;;;;;7.93;2.63;;;24.60;96.90;;;;;;5071270;28;20201;-73
2022/06/28 10:43:13;;;;;;;9.38;2.03;;;24.70;97.70;;;;;;5063422;28;20105;-72
2022/06/28 10:46:09;;;;;;;6.68;1.95;;;24.60;97.00;;;;;;5056165;28;20044;-72
2022/06/28 10:48:50;;;;;;;6.75;2.13;;;24.20;97.10;;;;;;5052191;28;20466;-73
2022/06/28 10:51:17;;;;;;;7.35;2.22;;;24.10;98.10;;;;;;5047389;28;20107;-72
2022/06/28 10:53:57;;;;;;;9.25;2.55;;;24.30;98.70;;;;;;5061146;28;20045;-73
2022/06/28 10:56:24;;;;;;;7.25;2.20;;;24.60;98.50;;;;;;5055836;28;20067;-72
2022/06/28 10:59:10;;;;;;;8.15;2.40;;;24.80;98.30;;;;;;5059908;28;20090;-73
2022/06/28 11:01:44;;;;;;;8.55;2.47;;;24.90;97.00;;;;;;5063515;28;20450;-72
2022/06/28 11:04:12;;;;;;;5.68;2.00;;;24.90;97.20;;;;;;5064943;28;20051;-72
2022/06/28 11:06:43;;;;;;;5.97;1.77;;;25.10;97.80;;;;;;5077912;28;20443;-72
2022/06/28 11:09:23;;;;;;;8.38;2.13;;;25.10;96.20;;;;;;5050641;28;20048;-72
2022/06/28 11:12:07;;;;;;;9.55;1.98;;;25.10;96.90;;;;;;5056274;28;20099;-73
2022/06/28 11:14:43;;;;;;;7.68;2.25;;;25.10;96.30;;;;;;5066030;28;20045;-72
2022/06/28 11:17:16;;;;;;;5.88;1.70;;;25.10;97.00;;;;;;5054257;28;20041;-73
2022/06/28 11:19:50;;;;;;;8.73;2.08;;;25.00;94.90;;;;;;5055034;28;20060;-72
2022/06/28 11:22:38;;;;;;;8.48;2.15;;;24.90;95.70;;;;;;5065730;28;20033;-73
2022/06/28 11:25:06;;;;;;;9.25;1.70;;;24.70;94.70;;;;;;5073435;28;20037;-71
2022/06/28 11:27:33;;;;;;;12.10;2.60;;;24.70;96.20;;;;;;5064664;28;20045;-72
2022/06/28 11:30:01;;;;;;;9.45;2.38;;;24.70;95.70;;;;;;5071127;28;20043;-73
2022/06/28 11:32:32;;;;;;;7.57;1.88;;;24.60;94.60;;;;;;5069071;28;20033;-72
2022/06/28 11:35:06;;;;;;;6.55;1.65;;;24.20;93.60;;;;;;5061168;28;20038;-72
2022/06/28 11:37:45;;;;;;;6.28;1.70;;;24.00;94.70;;;;;;5063948;28;20448;-72
2022/06/28 11:40:11;;;;;;;5.10;1.60;;;24.00;94.50;;;;;;5075621;28;20407;-74
2022/06/28 11:42:36;;;;;;;7.57;1.73;;;24.10;95.10;;;;;;5069448;28;20127;-72
2022/06/28 11:45:03;;;;;;;5.68;1.67;;;24.20;95.10;;;;;;5064840;28;20500;-72
2022/06/28 11:47:29;;;;;;;6.88;1.70;;;24.10;94.00;;;;;;5057472;28;20044;-73
2022/06/28 11:50:20;;;;;;;5.20;1.60;;;24.20;94.60;;;;;;5065523;28;20052;-73
2022/06/28 11:52:54;;;;;;;6.18;1.58;;;24.20;93.90;;;;;;5070239;28;20102;-74
2022/06/28 11:55:39;;;;;;;7.38;1.65;;;24.10;93.10;;;;;;5061362;28;20356;-73
2022/06/28 11:58:19;;;;;;;5.72;1.55;;;24.10;91.80;;;;;;5064649;28;20437;-72
2022/06/28 12:01:03;;;;;;;4.93;1.30;;;24.30;94.00;;;;;;5068491;28;20040;-73
2022/06/28 12:03:30;;;;;;;6.82;1.35;;;24.40;93.60;;;;;;5066465;28;20463;-74
2022/06/28 12:06:00;;;;;;;6.63;1.98;;;24.60;94.30;;;;;;5061900;28;20041;-73
2022/06/28 12:08:45;;;;;;;6.80;1.60;;;24.80;94.10;;;;;;5059516;28;20036;-73
2022/06/28 12:11:27;;;;;;;9.15;1.90;;;24.70;93.00;;;;;;5060431;28;20045;-73
2022/06/28 12:14:04;;;;;;;7.33;1.40;;;24.60;92.70;;;;;;5058817;28;20041;-74
2022/06/28 12:16:51;;;;;;;10.60;1.85;;;24.50;92.70;;;;;;5065207;28;20067;-74
2022/06/28 12:19:32;;;;;;;6.03;1.90;;;24.50;91.50;;;;;;5065392;28;20130;-74
2022/06/28 12:22:00;;;;;;;5.65;1.48;;;24.40;93.00;;;;;;5059886;28;20045;-74
2022/06/28 12:24:55;;;;;;;9.68;1.42;;;24.40;93.10;;;;;;5063705;28;20086;-74
2022/06/28 12:27:27;;;;;;;6.85;1.50;;;24.40;92.30;;;;;;5059605;28;20194;-74
2022/06/28 12:29:54;;;;;;;8.25;1.33;;;24.40;92.30;;;;;;5058398;28;20047;-73
2022/06/28 12:32:20;;;;;;;7.68;1.40;;;24.50;92.80;;;;;;5056007;28;20033;-74
2022/06/28 12:34:46;;;;;;;6.95;1.60;;;24.50;93.40;;;;;;5053475;28;20044;-75
2022/06/28 12:37:12;;;;;;;5.00;1.30;;;24.50;92.80;;;;;;5050260;28;20037;-73
2022/06/28 12:39:38;;;;;;;9.30;1.67;;;24.50;93.50;;;;;;5059550;28;20044;-74
2022/06/28 12:42:08;;;;;;;9.65;1.83;;;24.60;93.60;;;;;;5051665;28;20049;-73
2022/06/28 12:44:33;;;;;;;6.72;1.75;;;24.70;93.50;;;;;;5058279;28;20057;-74
2022/06/28 12:47:00;;;;;;;8.55;1.58;;;24.70;93.70;;;;;;5060805;28;20054;-73
2022/06/28 12:49:26;;;;;;;6.60;1.50;;;24.90;93.70;;;;;;5054326;28;20210;-73
2022/06/28 12:51:52;;;;;;;5.82;1.73;;;25.00;92.90;;;;;;5060962;28;20098;-73
2022/06/28 12:54:18;;;;;;;6.10;1.50;;;24.90;93.00;;;;;;5061657;28;20127;-75
2022/06/28 12:56:44;;;;;;;5.30;1.80;;;24.90;92.20;;;;;;5076692;28;20045;-76
2022/06/28 12:59:10;;;;;;;3.58;1.10;;;24.90;92.60;;;;;;5068600;28;20040;-76
2022/06/28 13:01:36;;;;;;;6.25;1.85;;;24.80;92.30;;;;;;5082301;28;20063;-76
2022/06/28 13:04:02;;;;;;;6.85;1.27;;;24.80;92.10;;;;;;5063282;28;20056;-75